createdAt,value
2022-09-23T00:03:13.856Z,87.88
2022-09-23T00:05:40.816Z,87.85
2022-09-23T00:08:10.587Z,87.93
2022-09-23T00:10:39.939Z,87.74
2022-09-23T00:13:07.222Z,87.25
2022-09-23T00:15:41.196Z,87.90
2022-09-23T00:18:08.233Z,88.21
2022-09-23T00:20:36.461Z,87.75
2022-09-23T00:23:03.796Z,88.25
2022-09-23T00:25:30.564Z,87.50
2022-09-23T00:27:57.613Z,87.94
2022-09-23T00:30:24.724Z,87.65
2022-09-23T00:32:53.082Z,86.89
2022-09-23T00:35:20.419Z,86.77
2022-09-23T00:37:47.484Z,87.49
2022-09-23T00:40:15.355Z,87.42
2022-09-23T00:42:49.984Z,88.06
2022-09-23T00:45:19.817Z,87.90
2022-09-23T00:47:58.371Z,88.48
2022-09-23T00:50:36.816Z,88.20
2022-09-23T00:53:08.268Z,87.83
2022-09-23T00:55:43.186Z,88.78
2022-09-23T00:58:15.386Z,88.54
2022-09-23T01:00:42.627Z,88.25
2022-09-23T01:03:10.822Z,87.38
2022-09-23T01:05:38.823Z,87.02
2022-09-23T01:08:07.474Z,87.76
2022-09-23T01:10:49.774Z,87.54
2022-09-23T01:13:37.963Z,87.54
2022-09-23T01:16:13.749Z,86.74
2022-09-23T01:18:53.333Z,87.67
2022-09-23T01:21:37.937Z,88.28
2022-09-23T01:24:08.026Z,88.42
2022-09-23T01:27:01.173Z,88.67
2022-09-23T01:29:53.926Z,88.21
2022-09-23T01:32:49.023Z,88.50
2022-09-23T01:35:40.410Z,87.94
2022-09-23T01:38:19.055Z,88.69
2022-09-23T01:40:51.286Z,88.89
2022-09-23T01:43:24.437Z,88.31
2022-09-23T01:45:57.875Z,88.02
2022-09-23T01:49:09.927Z,88.72
2022-09-23T01:51:41.962Z,88.03
2022-09-23T01:54:18.518Z,87.66
2022-09-23T01:56:54.876Z,87.64
2022-09-23T01:59:29.411Z,87.44
2022-09-23T02:02:04.364Z,88.67
2022-09-23T02:05:06.022Z,88.79
2022-09-23T02:07:48.366Z,88.93
2022-09-23T02:11:01.136Z,88.78
2022-09-23T02:13:51.388Z,89.77
2022-09-23T02:16:42.860Z,89.22
2022-09-23T02:19:51.458Z,89.64
2022-09-23T02:22:30.124Z,90.57
2022-09-23T02:24:58.189Z,91.18
2022-09-23T02:27:25.947Z,90.40
2022-09-23T02:30:00.670Z,89.54
2022-09-23T02:32:54.700Z,88.23
2022-09-23T02:35:33.174Z,88.12
2022-09-23T02:38:16.264Z,88.21
2022-09-23T02:40:54.678Z,88.17
2022-09-23T02:43:40.191Z,88.96
2022-09-23T02:46:07.916Z,89.25
2022-09-23T02:48:50.108Z,88.64
2022-09-23T02:51:17.228Z,89.83
2022-09-23T02:53:45.950Z,89.50
2022-09-23T02:56:19.755Z,90.29
2022-09-23T02:58:51.959Z,90.67
2022-09-23T03:02:07.139Z,89.81
2022-09-23T03:04:50.278Z,89.56
2022-09-23T03:07:33.327Z,89.72
2022-09-23T03:10:31.175Z,90.00
2022-09-23T03:13:31.436Z,91.27
2022-09-23T03:16:32.448Z,90.89
2022-09-23T03:19:08.265Z,90.87
2022-09-23T03:21:46.703Z,90.08
2022-09-23T03:24:15.795Z,90.10
2022-09-23T03:26:47.106Z,89.99
2022-09-23T03:29:16.215Z,90.24
2022-09-23T03:31:44.829Z,90.05
2022-09-23T03:34:18.238Z,89.87
2022-09-23T03:37:03.083Z,89.51
2022-09-23T03:39:37.451Z,89.63
2022-09-23T03:42:12.814Z,89.10
2022-09-23T03:44:47.966Z,89.46
2022-09-23T03:47:17.064Z,88.81
2022-09-23T03:49:48.515Z,88.48
2022-09-23T03:52:17.172Z,88.73
2022-09-23T03:54:44.513Z,88.46
2022-09-23T03:57:12.663Z,87.70
2022-09-23T03:59:40.047Z,87.22
2022-09-23T04:02:08.088Z,87.74
2022-09-23T04:04:40.314Z,87.50
2022-09-23T04:07:07.380Z,87.66
2022-09-23T04:09:34.943Z,87.33
2022-09-23T04:12:01.974Z,87.03
2022-09-23T04:14:28.875Z,86.38
2022-09-23T04:16:56.197Z,86.35
2022-09-23T04:19:23.112Z,85.89
2022-09-23T04:21:50.320Z,85.89
2022-09-23T04:24:17.788Z,86.68
2022-09-23T04:26:44.759Z,86.21
2022-09-23T04:29:12.117Z,85.96
2022-09-23T04:31:39.469Z,85.83
2022-09-23T04:34:07.069Z,85.72
2022-09-23T04:36:33.890Z,87.00
2022-09-23T04:39:01.235Z,87.14
2022-09-23T04:41:28.383Z,87.64
2022-09-23T04:43:57.422Z,87.31
2022-09-23T04:46:24.947Z,87.64
2022-09-23T04:48:51.818Z,87.80
2022-09-23T04:51:22.023Z,87.62
2022-09-23T04:53:52.109Z,87.08
2022-09-23T04:56:29.265Z,88.07
2022-09-23T04:58:59.026Z,87.58
2022-09-23T05:01:31.579Z,86.67
2022-09-23T05:04:02.604Z,86.10
2022-09-23T05:06:36.744Z,85.77
2022-09-23T05:09:08.031Z,85.82
2022-09-23T05:11:35.566Z,85.54
2022-09-23T05:14:02.934Z,85.45
2022-09-23T05:16:29.967Z,84.44
2022-09-23T05:18:57.751Z,83.97
2022-09-23T05:21:27.594Z,84.26
2022-09-23T05:23:59.117Z,84.31
2022-09-23T05:26:28.551Z,83.73
2022-09-23T05:28:55.949Z,83.47
2022-09-23T05:31:25.383Z,84.07
2022-09-23T05:33:55.526Z,84.84
2022-09-23T05:36:23.498Z,83.78
2022-09-23T05:38:51.450Z,82.36
2022-09-23T05:41:20.982Z,80.62
2022-09-23T05:43:47.875Z,80.52
2022-09-23T05:46:29.672Z,80.96
2022-09-23T05:49:02.119Z,80.49
2022-09-23T05:51:31.352Z,79.62
2022-09-23T05:53:59.487Z,79.91
2022-09-23T05:56:28.099Z,80.03
2022-09-23T05:58:57.360Z,79.02
2022-09-23T06:01:27.243Z,79.03
2022-09-23T06:03:56.209Z,76.52
2022-09-23T06:06:31.962Z,69.44
2022-09-23T06:09:02.796Z,68.19
2022-09-23T06:11:35.087Z,64.79
2022-09-23T06:14:02.971Z,62.73
2022-09-23T06:16:32.568Z,58.76
2022-09-23T06:19:07.002Z,56.01
2022-09-23T06:21:36.787Z,53.52
2022-09-23T06:24:04.812Z,52.07
2022-09-23T06:26:35.263Z,53.27
2022-09-23T06:29:04.583Z,51.56
2022-09-23T06:31:33.260Z,48.34
2022-09-23T06:34:09.727Z,49.80
2022-09-23T06:36:43.923Z,47.85
2022-09-23T06:39:11.263Z,47.88
2022-09-23T06:41:39.309Z,47.87
2022-09-23T06:44:06.376Z,47.77
2022-09-23T06:46:33.716Z,47.09
2022-09-23T06:49:02.205Z,46.29
2022-09-23T06:51:29.053Z,48.19
2022-09-23T06:53:56.155Z,47.31
2022-09-23T06:56:23.824Z,45.60
2022-09-23T06:58:52.409Z,44.41
2022-09-23T07:01:20.076Z,44.32
2022-09-23T07:03:48.536Z,43.84
2022-09-23T07:06:17.282Z,45.33
2022-09-23T07:08:49.452Z,42.92
2022-09-23T07:11:19.441Z,42.30
2022-09-23T07:13:46.246Z,44.86
2022-09-23T07:16:13.336Z,44.47
2022-09-23T07:18:41.226Z,43.64
2022-09-23T07:21:13.832Z,44.38
2022-09-23T07:23:46.175Z,44.99
2022-09-23T07:26:13.898Z,46.12
2022-09-23T07:28:41.104Z,45.57
2022-09-23T07:31:10.817Z,44.92
2022-09-23T07:33:39.932Z,46.15
2022-09-23T07:36:17.430Z,43.87
2022-09-23T07:38:45.932Z,45.41
2022-09-23T07:41:16.269Z,45.02
2022-09-23T07:43:44.331Z,45.27
2022-09-23T07:46:16.942Z,44.12
2022-09-23T07:48:46.048Z,42.79
2022-09-23T07:51:19.057Z,42.37
2022-09-23T07:53:50.822Z,42.20
2022-09-23T07:56:19.555Z,42.67
2022-09-23T07:59:03.104Z,41.68
2022-09-23T08:01:38.844Z,42.07
2022-09-23T08:04:13.950Z,40.57
2022-09-23T08:06:43.090Z,40.00
2022-09-23T08:09:10.669Z,40.95
2022-09-23T08:11:42.252Z,43.36
2022-09-23T08:14:14.210Z,44.07
2022-09-23T08:16:42.377Z,45.67
2022-09-23T08:19:09.467Z,40.32
2022-09-23T08:21:39.477Z,41.04
2022-09-23T08:24:13.531Z,42.00
2022-09-23T08:26:40.504Z,42.23
2022-09-23T08:29:10.906Z,41.15
2022-09-23T08:31:37.955Z,42.46
2022-09-23T08:34:05.191Z,43.47
2022-09-23T08:36:32.267Z,43.61
2022-09-23T08:38:59.255Z,45.88
2022-09-23T08:42:02.749Z,46.93
2022-09-23T08:44:53.549Z,46.89
2022-09-23T08:47:24.855Z,45.28
2022-09-23T08:49:57.392Z,45.69
2022-09-23T08:52:33.007Z,44.70
2022-09-23T08:55:00.021Z,44.20
2022-09-23T08:58:02.221Z,43.40
2022-09-23T09:00:42.252Z,43.92
2022-09-23T09:04:01.224Z,43.29
2022-09-23T09:06:51.718Z,42.14
2022-09-23T09:09:34.087Z,39.21
2022-09-23T09:12:14.276Z,39.47
2022-09-23T09:15:11.066Z,37.76
2022-09-23T09:17:39.975Z,37.92
2022-09-23T09:20:17.589Z,39.42
2022-09-23T09:23:00.087Z,41.84
2022-09-23T09:25:39.207Z,42.67
2022-09-23T09:28:40.935Z,42.46
2022-09-23T09:31:21.475Z,44.58
2022-09-23T09:33:58.539Z,44.84
2022-09-23T09:36:54.375Z,46.49
2022-09-23T09:39:25.989Z,46.84
2022-09-23T09:41:55.597Z,45.29
2022-09-23T09:44:37.339Z,43.87
2022-09-23T09:47:28.597Z,40.51
2022-09-23T09:50:41.702Z,41.66
2022-09-23T09:53:24.038Z,40.41
2022-09-23T09:56:04.889Z,40.51
2022-09-23T09:58:55.347Z,40.08
2022-09-23T10:01:30.333Z,40.32
2022-09-23T10:04:01.115Z,41.45
2022-09-23T10:06:31.889Z,43.14
2022-09-23T10:09:04.707Z,44.76
2022-09-23T10:11:33.124Z,45.34
2022-09-23T10:14:02.435Z,46.79
2022-09-23T10:16:37.408Z,46.77
2022-09-23T10:19:30.771Z,48.02
2022-09-23T10:22:04.905Z,47.48
2022-09-23T10:24:36.527Z,47.57
2022-09-23T10:27:14.129Z,47.73
2022-09-23T10:29:48.643Z,47.58
2022-09-23T10:32:37.729Z,50.53
2022-09-23T10:35:09.134Z,52.27
2022-09-23T10:37:41.099Z,51.29
2022-09-23T10:40:35.849Z,51.04
2022-09-23T10:43:45.849Z,50.48
2022-09-23T10:46:47.683Z,47.47
2022-09-23T10:49:33.661Z,44.51
2022-09-23T10:52:03.427Z,47.87
2022-09-23T10:54:36.284Z,47.24
2022-09-23T10:57:41.875Z,45.19
2022-09-23T11:00:23.487Z,43.62
2022-09-23T11:03:25.619Z,43.87
2022-09-23T11:06:35.708Z,44.09
2022-09-23T11:09:14.324Z,45.25
2022-09-23T11:12:04.719Z,45.80
2022-09-23T11:14:51.697Z,45.69
2022-09-23T11:17:40.230Z,45.51
2022-09-23T11:20:23.259Z,46.49
2022-09-23T11:23:26.638Z,47.49
2022-09-23T11:26:32.755Z,47.72
2022-09-23T11:29:02.539Z,49.06
2022-09-23T11:32:20.520Z,49.74
2022-09-23T11:35:13.331Z,47.16
2022-09-23T11:37:45.718Z,46.91
2022-09-23T11:40:19.475Z,44.77
2022-09-23T11:43:18.767Z,45.48
2022-09-23T11:45:58.623Z,44.74
2022-09-23T11:48:44.238Z,44.74
2022-09-23T11:51:23.622Z,44.29
2022-09-23T11:53:57.932Z,45.62
2022-09-23T11:56:38.061Z,45.74
2022-09-23T11:59:10.460Z,46.68
2022-09-23T12:01:47.404Z,47.46
2022-09-23T12:04:48.428Z,47.66
2022-09-23T12:07:29.443Z,48.25
2022-09-23T12:10:03.929Z,48.10
2022-09-23T12:12:39.895Z,47.49
2022-09-23T12:15:21.994Z,48.39
2022-09-23T12:18:19.641Z,48.41
2022-09-23T12:21:49.220Z,48.08
2022-09-23T12:24:25.896Z,48.65
2022-09-23T12:26:57.583Z,49.05
2022-09-23T12:31:55.918Z,48.43
2022-09-23T12:34:33.304Z,49.17
2022-09-23T12:37:04.856Z,48.80
2022-09-23T12:39:35.653Z,48.02
2022-09-23T12:42:05.619Z,46.40
2022-09-23T12:44:42.349Z,46.20
2022-09-23T12:47:15.302Z,45.44
2022-09-23T12:49:43.614Z,44.39
2022-09-23T12:52:16.854Z,41.87
2022-09-23T12:54:51.872Z,41.98
2022-09-23T12:57:21.740Z,43.20
2022-09-23T12:59:51.653Z,42.85
2022-09-23T13:02:30.312Z,42.53
2022-09-23T13:05:21.951Z,43.25
2022-09-23T13:07:51.088Z,42.83
2022-09-23T13:10:48.930Z,42.83
2022-09-23T13:13:41.171Z,42.26
2022-09-23T13:16:14.373Z,43.47
2022-09-23T13:18:55.987Z,41.37
2022-09-23T13:21:47.642Z,41.69
2022-09-23T13:24:43.207Z,39.95
2022-09-23T13:27:22.499Z,39.91
2022-09-23T13:30:15.774Z,38.50
2022-09-23T13:32:50.167Z,39.33
2022-09-23T13:35:27.413Z,39.07
2022-09-23T13:37:54.591Z,38.95
2022-09-23T13:40:25.865Z,38.98
2022-09-23T13:42:59.681Z,40.06
2022-09-23T13:45:28.516Z,39.37
2022-09-23T13:48:06.218Z,38.92
2022-09-23T13:50:38.638Z,40.25
2022-09-23T13:53:18.915Z,40.27
2022-09-23T13:55:50.207Z,40.73
2022-09-23T13:58:21.915Z,40.26
2022-09-23T14:00:52.007Z,40.09
2022-09-23T14:03:39.405Z,40.33
2022-09-23T14:06:14.405Z,40.46
2022-09-23T14:08:45.929Z,40.47
2022-09-23T14:11:22.008Z,40.10
2022-09-23T14:13:54.453Z,40.11
2022-09-23T14:16:25.515Z,39.53
2022-09-23T14:18:56.881Z,39.82
2022-09-23T14:21:35.880Z,39.54
2022-09-23T14:24:13.704Z,39.29
2022-09-23T14:26:43.254Z,38.47
2022-09-23T14:29:20.370Z,37.75
2022-09-23T14:31:59.986Z,37.19
2022-09-23T14:34:52.689Z,38.22
2022-09-23T14:38:03.206Z,37.37
2022-09-23T14:40:33.762Z,39.04
2022-09-23T14:43:06.546Z,38.16
2022-09-23T14:45:38.825Z,37.59
2022-09-23T14:48:09.926Z,38.07
2022-09-23T14:50:37.285Z,37.85
2022-09-23T14:53:20.223Z,37.24
2022-09-23T14:55:48.836Z,37.54
2022-09-23T14:58:17.648Z,36.46
2022-09-23T15:01:01.384Z,36.39
2022-09-23T15:03:29.022Z,36.19
2022-09-23T15:06:08.343Z,37.13
2022-09-23T15:08:36.141Z,38.78
2022-09-23T15:11:08.017Z,37.99
2022-09-23T15:13:41.778Z,37.73
2022-09-23T15:16:08.687Z,37.53
2022-09-23T15:18:38.689Z,38.79
2022-09-23T15:21:17.920Z,38.17
2022-09-23T15:23:47.825Z,38.29
2022-09-23T15:26:20.086Z,38.56
2022-09-23T15:28:48.236Z,38.93
2022-09-23T15:31:20.082Z,39.19
2022-09-23T15:33:48.443Z,40.33
2022-09-23T15:36:26.033Z,41.32
2022-09-23T15:38:55.344Z,40.86
2022-09-23T15:41:24.211Z,41.35
2022-09-23T15:43:51.659Z,40.65
2022-09-23T15:46:25.515Z,41.58
2022-09-23T15:49:00.215Z,43.91
2022-09-23T15:51:28.539Z,45.08
2022-09-23T15:53:56.550Z,46.14
2022-09-23T15:56:24.825Z,46.50
2022-09-23T15:58:51.708Z,46.94
2022-09-23T16:01:30.752Z,48.11
2022-09-23T16:04:01.401Z,48.32
2022-09-23T16:06:28.461Z,48.99
2022-09-23T16:08:55.814Z,49.22
2022-09-23T16:11:26.972Z,49.68
2022-09-23T16:13:53.903Z,49.50
2022-09-23T16:16:23.814Z,50.25
2022-09-23T16:18:53.482Z,50.52
2022-09-23T16:21:24.081Z,51.19
2022-09-23T16:23:51.658Z,51.36
2022-09-23T16:26:39.975Z,52.31
2022-09-23T16:29:07.012Z,52.59
2022-09-23T16:31:34.065Z,53.02
2022-09-23T16:34:02.473Z,53.43
2022-09-23T16:36:39.643Z,54.18
2022-09-23T16:39:10.154Z,55.55
2022-09-23T16:41:37.265Z,57.05
2022-09-23T16:44:07.508Z,59.29
2022-09-23T16:46:35.432Z,60.51
2022-09-23T16:49:02.988Z,60.19
2022-09-23T16:51:38.658Z,60.97
2022-09-23T16:54:11.961Z,61.91
2022-09-23T16:56:45.346Z,61.78
2022-09-23T16:59:13.614Z,62.44
2022-09-23T17:01:59.392Z,64.01
2022-09-23T17:04:27.764Z,64.20
2022-09-23T17:06:56.185Z,64.77
2022-09-23T17:09:28.721Z,66.60
2022-09-23T17:12:08.136Z,66.84
2022-09-23T17:14:35.278Z,65.72
2022-09-23T17:17:02.235Z,66.18
2022-09-23T17:19:29.468Z,66.27
2022-09-23T17:21:56.353Z,66.51
2022-09-23T17:24:23.716Z,66.15
2022-09-23T17:26:53.322Z,67.23
2022-09-23T17:29:20.384Z,67.87
2022-09-23T17:31:47.251Z,69.38
2022-09-23T17:34:16.285Z,69.49
2022-09-23T17:36:43.192Z,69.14
2022-09-23T17:39:10.009Z,69.80
2022-09-23T17:41:39.194Z,69.30
2022-09-23T17:44:06.112Z,71.09
2022-09-23T17:46:32.952Z,71.92
2022-09-23T17:48:59.779Z,71.19
2022-09-23T17:51:26.832Z,72.95
2022-09-23T17:53:53.713Z,72.63
2022-09-23T17:56:22.814Z,72.24
2022-09-23T17:58:50.790Z,73.48
2022-09-23T18:01:23.378Z,73.22
2022-09-23T18:03:59.468Z,74.12
2022-09-23T18:06:28.915Z,74.23
2022-09-23T18:08:58.371Z,74.45
2022-09-23T18:11:28.401Z,74.07
2022-09-23T18:14:00.848Z,74.18
2022-09-23T18:16:35.430Z,74.24
2022-09-23T18:19:03.848Z,74.83
2022-09-23T18:21:33.642Z,75.28
2022-09-23T18:26:49.867Z,75.37
2022-09-23T18:29:17.219Z,75.04
2022-09-23T18:31:45.267Z,74.62
2022-09-23T18:34:15.015Z,75.24
2022-09-23T18:36:42.148Z,75.18
2022-09-23T18:39:09.186Z,74.97
2022-09-23T18:41:36.348Z,75.68
2022-09-23T18:44:03.963Z,75.75
2022-09-23T18:46:31.561Z,76.16
2022-09-23T18:49:17.566Z,76.92
2022-09-23T18:51:51.160Z,77.23
2022-09-23T18:54:19.618Z,76.27
2022-09-23T18:56:46.738Z,76.47
2022-09-23T18:59:19.661Z,77.22
2022-09-23T19:01:50.000Z,76.78
2022-09-23T19:04:18.976Z,76.71
2022-09-23T19:06:46.167Z,77.58
2022-09-23T19:09:14.493Z,77.66
2022-09-23T19:11:41.955Z,78.59
2022-09-23T19:14:11.621Z,78.05
2022-09-23T19:16:40.142Z,78.25
2022-09-23T19:19:07.557Z,77.60
2022-09-23T19:21:34.797Z,76.95
2022-09-23T19:24:07.161Z,77.47
2022-09-23T19:26:39.702Z,77.50
2022-09-23T19:29:08.603Z,77.22
2022-09-23T19:31:40.367Z,77.28
2022-09-23T19:34:19.244Z,77.34
2022-09-23T19:36:47.475Z,77.58
2022-09-23T19:39:20.151Z,76.98
2022-09-23T19:41:47.286Z,77.50
2022-09-23T19:44:14.839Z,78.34
2022-09-23T19:46:45.448Z,76.74
2022-09-23T19:49:13.117Z,77.29
2022-09-23T19:51:40.735Z,76.68
2022-09-23T19:54:08.187Z,76.59
2022-09-23T19:56:36.072Z,77.03
2022-09-23T19:59:40.475Z,76.46
2022-09-23T20:02:09.451Z,76.70
2022-09-23T20:04:36.279Z,76.96
2022-09-23T20:07:04.815Z,76.58
2022-09-23T20:09:34.225Z,76.49
2022-09-23T20:12:02.599Z,76.81
2022-09-23T20:14:29.845Z,77.20
2022-09-23T20:16:56.642Z,76.88
2022-09-23T20:19:23.625Z,77.08
2022-09-23T20:22:10.416Z,77.06
2022-09-23T20:24:37.304Z,77.04
2022-09-23T20:27:09.944Z,77.25
2022-09-23T20:29:37.736Z,77.68
2022-09-23T20:32:04.814Z,77.54
2022-09-23T20:34:33.713Z,77.76
2022-09-23T20:37:01.155Z,78.05
2022-09-23T20:39:28.433Z,77.93
2022-09-23T20:41:55.298Z,78.40
2022-09-23T20:44:24.687Z,78.22
2022-09-23T20:46:52.054Z,78.53
2022-09-23T20:49:19.923Z,78.62
2022-09-23T20:51:50.586Z,78.34
2022-09-23T20:54:21.167Z,78.45
2022-09-23T20:56:48.975Z,78.55
2022-09-23T20:59:17.947Z,78.44
2022-09-23T21:01:45.794Z,78.42
2022-09-23T21:04:12.853Z,78.20
2022-09-23T21:06:39.966Z,78.29
2022-09-23T21:09:07.443Z,78.06
2022-09-23T21:11:34.474Z,78.32
2022-09-23T21:14:02.975Z,78.12
2022-09-23T21:16:30.746Z,78.48
2022-09-23T21:18:58.546Z,78.37
2022-09-23T21:21:27.613Z,79.53
2022-09-23T21:23:54.739Z,79.92
2022-09-23T21:26:23.931Z,78.34
2022-09-23T21:28:57.632Z,79.43
2022-09-23T21:31:27.377Z,79.38
2022-09-23T21:33:55.228Z,79.55
2022-09-23T21:36:24.403Z,79.58
2022-09-23T21:38:51.615Z,79.34
2022-09-23T21:41:18.729Z,79.29
2022-09-23T21:43:45.785Z,78.95
2022-09-23T21:46:15.475Z,78.47
2022-09-23T21:48:43.147Z,78.87
2022-09-23T21:51:19.386Z,78.96
2022-09-23T21:53:46.664Z,79.23
2022-09-23T21:56:22.249Z,78.49
2022-09-23T21:58:51.448Z,79.66
2022-09-23T22:01:27.320Z,80.02
2022-09-23T22:03:56.722Z,79.78
2022-09-23T22:06:30.721Z,80.02
2022-09-23T22:09:01.456Z,80.24
2022-09-23T22:11:51.789Z,79.78
2022-09-23T22:14:20.655Z,78.95
2022-09-23T22:16:47.805Z,78.99
2022-09-23T22:19:15.746Z,78.87
2022-09-23T22:21:44.324Z,79.95
2022-09-23T22:24:12.671Z,79.08
2022-09-23T22:26:42.137Z,79.34
2022-09-23T22:29:33.904Z,80.01
2022-09-23T22:32:21.024Z,79.65
2022-09-23T22:34:51.555Z,79.88
2022-09-23T22:37:26.555Z,80.58
2022-09-23T22:39:54.157Z,80.68
2022-09-23T22:42:24.243Z,79.84
2022-09-23T22:44:51.862Z,79.37
2022-09-23T22:47:20.220Z,79.43
2022-09-23T22:49:48.163Z,79.58
2022-09-23T22:52:21.245Z,80.12
2022-09-23T22:54:48.313Z,80.18
2022-09-23T22:57:15.411Z,79.27
2022-09-23T22:59:48.169Z,79.34
2022-09-23T23:02:17.992Z,78.95
2022-09-23T23:04:47.252Z,79.66
2022-09-23T23:07:16.377Z,79.87
2022-09-23T23:09:43.346Z,80.85
2022-09-23T23:12:10.238Z,80.29
2022-09-23T23:14:38.199Z,80.38
2022-09-23T23:17:07.698Z,80.80
2022-09-23T23:19:36.202Z,80.87
2022-09-23T23:22:05.023Z,81.57
2022-09-23T23:24:32.761Z,81.33
2022-09-23T23:26:59.689Z,80.52
2022-09-23T23:29:27.922Z,81.05
2022-09-23T23:31:55.080Z,80.61
2022-09-23T23:34:22.278Z,81.47
2022-09-23T23:36:55.104Z,80.41
2022-09-23T23:39:26.490Z,81.09
2022-09-23T23:41:58.013Z,80.14
2022-09-23T23:44:26.525Z,80.29
2022-09-23T23:46:54.735Z,80.10
2022-09-23T23:49:22.387Z,80.20
2022-09-23T23:51:55.200Z,80.89
2022-09-23T23:54:22.250Z,82.15
2022-09-23T23:56:49.333Z,81.23
2022-09-23T23:59:16.360Z,80.58
